Time;durP1;ratioP1;P1;durP2;ratioP2;P2;SDS_P1;SDS_P2;PMS_P1;PMS_P2;Temp;Humidity;BMP_temperature;BMP_pressure;BME280_temperature;BME280_humidity;BME280_pressure;Samples;Min_cycle;Max_cycle;Signal;HPM_P1;HPM_P2
2021/01/16 00:00:35;;;;;;;9.53;7.47;;;;;;;;;;2083785;28;20706;-63
2021/01/16 00:01:35;;;;;;;9.17;7.90;;;;;;;;;;2083726;28;20168;-60
2021/01/16 00:02:35;;;;;;;8.70;7.80;;;;;;;;;;2082561;28;20435;-58
2021/01/16 00:03:36;;;;;;;8.10;7.27;;;;;;;;;;2087380;28;20183;-58
2021/01/16 00:04:36;;;;;;;9.03;7.83;;;;;;;;;;2092534;28;20172;-58
2021/01/16 00:05:37;;;;;;;8.23;7.17;;;;;;;;;;2086729;28;20203;-61
2021/01/16 00:06:37;;;;;;;9.53;7.90;;;;;;;;;;2082960;28;20344;-62
2021/01/16 00:07:37;;;;;;;8.80;7.67;;;;;;;;;;2083140;28;20692;-59
2021/01/16 00:08:37;;;;;;;9.33;8.17;;;;;;;;;;2082305;28;20200;-62
2021/01/16 00:09:37;;;;;;;7.93;7.13;;;;;;;;;;2084584;28;20172;-57
2021/01/16 00:10:39;;;;;;;9.53;7.80;;;;;;;;;;2091180;28;20246;-60
2021/01/16 00:11:39;;;;;;;10.00;8.00;;;;;;;;;;2087722;28;20834;-58
2021/01/16 00:12:41;;;;;;;9.77;7.27;;;;;;;;;;2092229;28;20450;-60
2021/01/16 00:13:41;;;;;;;9.93;8.17;;;;;;;;;;2085292;28;20179;-61
2021/01/16 00:14:41;;;;;;;9.27;8.27;;;;;;;;;;2091469;28;20444;-61
2021/01/16 00:15:42;;;;;;;11.30;8.00;;;;;;;;;;2083128;28;20180;-59
2021/01/16 00:16:42;;;;;;;9.20;7.80;;;;;;;;;;2080243;28;20538;-59
2021/01/16 00:17:43;;;;;;;9.37;7.57;;;;;;;;;;2085449;28;20607;-61
2021/01/16 00:18:43;;;;;;;9.07;7.93;;;;;;;;;;2081286;28;20558;-59
2021/01/16 00:19:43;;;;;;;8.30;7.50;;;;;;;;;;2077006;28;20282;-61
2021/01/16 00:20:45;;;;;;;10.90;7.93;;;;;;;;;;2090024;28;20673;-61
2021/01/16 00:21:45;;;;;;;9.80;7.20;;;;;;;;;;2092795;28;20562;-60
2021/01/16 00:22:48;;;;;;;11.10;8.00;;;;;;;;;;2091411;28;20415;-62
2021/01/16 00:23:49;;;;;;;8.53;7.30;;;;;;;;;;2089603;28;20183;-60
2021/01/16 00:24:49;;;;;;;9.27;7.93;;;;;;;;;;2092376;28;20396;-60
2021/01/16 00:25:49;;;;;;;10.63;7.80;;;;;;;;;;2091817;28;20564;-60
2021/01/16 00:26:50;;;;;;;10.33;7.97;;;;;;;;;;2091500;28;20190;-61
2021/01/16 00:27:50;;;;;;;12.10;8.40;;;;;;;;;;2087266;28;20267;-62
2021/01/16 00:28:50;;;;;;;10.87;7.90;;;;;;;;;;2090303;28;20221;-61
2021/01/16 00:29:50;;;;;;;8.50;7.43;;;;;;;;;;2090974;28;20238;-60
2021/01/16 00:30:51;;;;;;;9.13;7.53;;;;;;;;;;2090925;28;20167;-61
2021/01/16 00:31:51;;;;;;;9.53;7.67;;;;;;;;;;2081396;28;20176;-59
2021/01/16 00:32:51;;;;;;;12.17;8.63;;;;;;;;;;2080488;28;20212;-60
2021/01/16 00:33:52;;;;;;;8.53;7.33;;;;;;;;;;2085501;28;20264;-62
2021/01/16 00:34:52;;;;;;;9.37;8.13;;;;;;;;;;2088382;28;20168;-60
2021/01/16 00:35:53;;;;;;;10.27;8.10;;;;;;;;;;2091021;28;20636;-60
2021/01/16 00:36:53;;;;;;;9.00;8.00;;;;;;;;;;2090219;28;20171;-58
2021/01/16 00:37:54;;;;;;;10.40;7.80;;;;;;;;;;2089942;28;20401;-61
2021/01/16 00:38:54;;;;;;;9.60;8.60;;;;;;;;;;2086092;28;20208;-58
2021/01/16 00:39:54;;;;;;;8.03;7.20;;;;;;;;;;2091379;28;20175;-61
2021/01/16 00:40:55;;;;;;;15.37;8.37;;;;;;;;;;2091134;28;20178;-59
2021/01/16 00:41:55;;;;;;;9.13;8.17;;;;;;;;;;2090519;28;20179;-59
2021/01/16 00:42:55;;;;;;;10.57;7.50;;;;;;;;;;2089792;28;20650;-59
2021/01/16 00:43:56;;;;;;;9.37;8.10;;;;;;;;;;2087081;28;20184;-57
2021/01/16 00:44:56;;;;;;;9.30;8.10;;;;;;;;;;2091376;28;20719;-58
2021/01/16 00:45:56;;;;;;;8.63;7.30;;;;;;;;;;2082306;28;20184;-59
2021/01/16 00:46:56;;;;;;;9.00;7.43;;;;;;;;;;2075838;28;20185;-61
2021/01/16 00:48:05;;;;;;;8.97;8.07;;;;;;;;;;2075150;28;20204;-58
2021/01/16 00:49:05;;;;;;;10.93;7.53;;;;;;;;;;2074985;28;20169;-57
2021/01/16 00:50:07;;;;;;;8.90;7.30;;;;;;;;;;2081706;28;20532;-58
2021/01/16 00:51:07;;;;;;;8.60;6.93;;;;;;;;;;2082564;28;20220;-57
2021/01/16 00:52:16;;;;;;;8.23;7.43;;;;;;;;;;2075509;28;20443;-59
2021/01/16 00:53:17;;;;;;;10.87;8.10;;;;;;;;;;2081339;28;21092;-60
2021/01/16 00:54:37;;;;;;;9.97;7.60;;;;;;;;;;2089873;28;20188;-61
2021/01/16 00:55:43;;;;;;;10.30;8.73;;;;;;;;;;2074008;28;20399;-58
2021/01/16 00:56:43;;;;;;;9.63;7.80;;;;;;;;;;2073418;28;20422;-59
2021/01/16 00:57:50;;;;;;;10.90;8.07;;;;;;;;;;2075301;28;20199;-58
2021/01/16 00:58:50;;;;;;;8.67;7.77;;;;;;;;;;2073225;28;21061;-60
2021/01/16 01:00:07;;;;;;;10.37;7.87;;;;;;;;;;2067859;28;20204;-58
2021/01/16 01:01:16;;;;;;;9.83;8.27;;;;;;;;;;2066771;28;20400;-60
2021/01/16 01:02:18;;;;;;;9.00;8.10;;;;;;;;;;2065875;28;20432;-61
2021/01/16 01:03:20;;;;;;;9.73;8.30;;;;;;;;;;2065453;28;21132;-58
2021/01/16 01:04:20;;;;;;;9.83;7.90;;;;;;;;;;2077768;28;20259;-60
2021/01/16 01:05:21;;;;;;;9.57;8.03;;;;;;;;;;2086821;28;20428;-57
2021/01/16 01:06:21;;;;;;;13.27;8.90;;;;;;;;;;2081840;28;20179;-58
2021/01/16 01:07:22;;;;;;;12.13;8.93;;;;;;;;;;2081718;28;20480;-62
2021/01/16 01:08:26;;;;;;;12.17;9.07;;;;;;;;;;2089448;28;20337;-60
2021/01/16 01:09:27;;;;;;;10.27;9.27;;;;;;;;;;2084752;28;20230;-59
2021/01/16 01:10:32;;;;;;;10.10;9.03;;;;;;;;;;2086623;28;20517;-60
2021/01/16 01:11:33;;;;;;;10.40;9.00;;;;;;;;;;2089823;28;20171;-61
2021/01/16 01:12:33;;;;;;;9.97;8.97;;;;;;;;;;2090585;28;20428;-61
2021/01/16 01:13:33;;;;;;;12.03;9.07;;;;;;;;;;2090815;28;20620;-61
2021/01/16 01:14:34;;;;;;;11.00;9.27;;;;;;;;;;2089856;28;20658;-61
2021/01/16 01:15:34;;;;;;;11.97;8.93;;;;;;;;;;2087846;28;20648;-61
2021/01/16 01:16:35;;;;;;;13.03;10.00;;;;;;;;;;2083022;28;20267;-60
2021/01/16 01:17:35;;;;;;;15.53;10.93;;;;;;;;;;2082096;28;20200;-60
2021/01/16 01:18:35;;;;;;;12.20;9.30;;;;;;;;;;2082392;28;20191;-60
2021/01/16 01:19:35;;;;;;;10.47;9.30;;;;;;;;;;2082633;28;20203;-60
2021/01/16 01:20:36;;;;;;;10.80;9.17;;;;;;;;;;2081811;28;20538;-61
2021/01/16 01:21:36;;;;;;;12.27;8.60;;;;;;;;;;2082197;28;20200;-62
2021/01/16 01:22:36;;;;;;;13.33;9.20;;;;;;;;;;2083150;28;20267;-59
2021/01/16 01:23:37;;;;;;;9.60;8.03;;;;;;;;;;2081781;28;20188;-61
2021/01/16 01:24:37;;;;;;;11.63;9.27;;;;;;;;;;2081844;28;20172;-61
2021/01/16 01:25:38;;;;;;;10.73;9.10;;;;;;;;;;2081698;28;20182;-62
2021/01/16 01:26:38;;;;;;;12.47;8.93;;;;;;;;;;2089122;28;20176;-60
2021/01/16 01:27:39;;;;;;;11.27;9.10;;;;;;;;;;2090084;28;20568;-60
2021/01/16 01:28:39;;;;;;;12.03;8.27;;;;;;;;;;2081854;28;20214;-59
2021/01/16 01:29:39;;;;;;;10.37;9.20;;;;;;;;;;2081852;28;20173;-60
2021/01/16 01:30:39;;;;;;;10.07;8.30;;;;;;;;;;2081876;28;20172;-61
2021/01/16 01:31:40;;;;;;;10.93;9.53;;;;;;;;;;2079026;28;20180;-57
2021/01/16 01:32:41;;;;;;;11.50;9.00;;;;;;;;;;2081950;28;20164;-59
2021/01/16 01:33:41;;;;;;;13.37;8.87;;;;;;;;;;2082102;28;20172;-61
2021/01/16 01:34:41;;;;;;;11.23;8.80;;;;;;;;;;2092310;28;20416;-61
2021/01/16 01:35:42;;;;;;;10.77;9.27;;;;;;;;;;2083109;28;20220;-61
2021/01/16 01:36:43;;;;;;;11.43;8.83;;;;;;;;;;2079340;28;20209;-61
2021/01/16 01:37:44;;;;;;;12.23;9.47;;;;;;;;;;2082309;28;20402;-61
2021/01/16 01:38:44;;;;;;;10.23;8.40;;;;;;;;;;2082154;28;20189;-60
2021/01/16 01:39:44;;;;;;;11.27;8.80;;;;;;;;;;2074833;28;20430;-61
2021/01/16 01:40:45;;;;;;;10.80;8.23;;;;;;;;;;2081960;28;20172;-60
2021/01/16 01:41:45;;;;;;;9.80;7.80;;;;;;;;;;2088982;28;20198;-58
2021/01/16 01:42:47;;;;;;;10.03;8.10;;;;;;;;;;2090621;28;20237;-59
2021/01/16 01:43:47;;;;;;;10.33;8.30;;;;;;;;;;2090361;28;20834;-61
2021/01/16 01:44:48;;;;;;;10.20;8.53;;;;;;;;;;2090586;28;20412;-60
2021/01/16 01:45:48;;;;;;;9.23;8.17;;;;;;;;;;2087116;28;20659;-58
2021/01/16 01:46:48;;;;;;;10.50;8.47;;;;;;;;;;2081381;28;20183;-60
2021/01/16 01:47:49;;;;;;;10.77;8.30;;;;;;;;;;2076461;28;20181;-60
2021/01/16 01:48:54;;;;;;;9.37;7.10;;;;;;;;;;2090519;28;20244;-59
2021/01/16 01:49:55;;;;;;;9.40;7.83;;;;;;;;;;2076961;28;20207;-60
2021/01/16 01:50:55;;;;;;;8.53;7.63;;;;;;;;;;2075556;28;20460;-60
2021/01/16 01:51:55;;;;;;;10.93;8.87;;;;;;;;;;2089657;28;20263;-60
2021/01/16 01:52:56;;;;;;;9.63;7.90;;;;;;;;;;2089847;28;20168;-61
2021/01/16 01:53:58;;;;;;;11.27;8.30;;;;;;;;;;2090430;28;20651;-62
2021/01/16 01:54:59;;;;;;;11.07;8.33;;;;;;;;;;2090596;28;20659;-61
2021/01/16 01:56:01;;;;;;;10.83;8.73;;;;;;;;;;2090398;28;20408;-61
2021/01/16 01:57:05;;;;;;;11.10;8.33;;;;;;;;;;2090106;28;20206;-60
2021/01/16 01:58:07;;;;;;;9.70;8.07;;;;;;;;;;2080775;28;20422;-61
2021/01/16 01:59:07;;;;;;;8.77;7.47;;;;;;;;;;2080685;28;20904;-62
2021/01/16 02:00:09;;;;;;;10.37;8.27;;;;;;;;;;2087187;28;20420;-57
2021/01/16 02:01:12;;;;;;;10.53;8.43;;;;;;;;;;2090732;28;20286;-58
2021/01/16 02:02:15;;;;;;;11.90;9.20;;;;;;;;;;2080863;28;20405;-60
2021/01/16 02:03:15;;;;;;;9.53;8.43;;;;;;;;;;2081728;28;20184;-61
2021/01/16 02:04:17;;;;;;;9.20;7.97;;;;;;;;;;2081218;28;20422;-61
2021/01/16 02:05:17;;;;;;;10.73;8.67;;;;;;;;;;2081789;28;20583;-59
2021/01/16 02:06:18;;;;;;;10.30;7.97;;;;;;;;;;2080998;28;20421;-61
2021/01/16 02:07:25;;;;;;;11.80;8.60;;;;;;;;;;2064595;28;20197;-60
2021/01/16 02:08:25;;;;;;;11.53;8.00;;;;;;;;;;2074147;28;20608;-61
2021/01/16 02:09:26;;;;;;;9.47;8.57;;;;;;;;;;2081290;28;20417;-60
2021/01/16 02:10:26;;;;;;;9.77;8.73;;;;;;;;;;2081329;28;20770;-61
2021/01/16 02:11:27;;;;;;;11.10;8.43;;;;;;;;;;2078923;28;20211;-59
2021/01/16 02:12:27;;;;;;;9.40;8.50;;;;;;;;;;2079565;28;20180;-59
2021/01/16 02:13:27;;;;;;;11.17;8.00;;;;;;;;;;2090018;28;20651;-58
2021/01/16 02:14:31;;;;;;;10.50;8.60;;;;;;;;;;2081227;28;20255;-59
2021/01/16 02:15:49;;;;;;;10.90;8.40;;;;;;;;;;2078049;28;20180;-61
2021/01/16 02:16:50;;;;;;;9.97;8.40;;;;;;;;;;2084196;28;20497;-59
2021/01/16 02:17:53;;;;;;;10.60;8.57;;;;;;;;;;2089606;28;20408;-58
2021/01/16 02:18:56;;;;;;;11.47;9.50;;;;;;;;;;2086023;28;20437;-61
2021/01/16 02:20:07;;;;;;;11.23;9.07;;;;;;;;;;2088900;28;20412;-61
2021/01/16 02:21:09;;;;;;;9.57;8.37;;;;;;;;;;2089885;28;20456;-58
2021/01/16 02:22:10;;;;;;;10.83;8.50;;;;;;;;;;2089684;28;20418;-61
2021/01/16 02:23:11;;;;;;;9.60;8.43;;;;;;;;;;2089371;28;20495;-60
2021/01/16 02:24:23;;;;;;;11.10;8.57;;;;;;;;;;2090118;28;20420;-61
2021/01/16 02:25:30;;;;;;;10.37;9.27;;;;;;;;;;2081300;28;20187;-60
2021/01/16 02:26:30;;;;;;;10.10;8.40;;;;;;;;;;2080359;28;20421;-58
2021/01/16 02:27:52;;;;;;;9.77;8.67;;;;;;;;;;2075383;28;20456;-61
2021/01/16 02:29:00;;;;;;;9.67;8.07;;;;;;;;;;2077879;28;20207;-61
2021/01/16 02:30:01;;;;;;;10.43;7.90;;;;;;;;;;2076536;28;20456;-61
2021/01/16 02:31:03;;;;;;;12.50;8.43;;;;;;;;;;2084715;28;20421;-58
2021/01/16 02:32:04;;;;;;;8.93;8.07;;;;;;;;;;2089872;28;20417;-57
2021/01/16 02:33:06;;;;;;;11.97;8.27;;;;;;;;;;2089833;28;20401;-61
2021/01/16 02:34:08;;;;;;;9.30;8.30;;;;;;;;;;2089927;28;20396;-59
2021/01/16 02:35:10;;;;;;;9.77;7.33;;;;;;;;;;2089308;28;20413;-60
2021/01/16 02:36:27;;;;;;;10.17;8.30;;;;;;;;;;2081939;28;20424;-61
2021/01/16 02:37:48;;;;;;;9.30;8.07;;;;;;;;;;2072236;28;20386;-60
2021/01/16 02:39:01;;;;;;;9.60;8.03;;;;;;;;;;2081803;28;20464;-58
2021/01/16 02:40:04;;;;;;;10.90;8.03;;;;;;;;;;2090271;28;20423;-61
2021/01/16 02:41:25;;;;;;;10.70;8.20;;;;;;;;;;2086605;28;20436;-64
2021/01/16 02:42:44;;;;;;;8.57;7.67;;;;;;;;;;2081117;28;20474;-61
2021/01/16 02:43:47;;;;;;;10.10;7.70;;;;;;;;;;2082038;28;20421;-61
2021/01/16 02:45:07;;;;;;;10.33;8.67;;;;;;;;;;2082139;28;20952;-62
2021/01/16 02:46:26;;;;;;;8.93;7.70;;;;;;;;;;2084712;28;20420;-61
2021/01/16 02:47:32;;;;;;;11.17;9.37;;;;;;;;;;2088134;28;20491;-61
2021/01/16 02:48:43;;;;;;;10.43;8.97;;;;;;;;;;2088508;28;20439;-60
2021/01/16 02:49:50;;;;;;;10.20;8.10;;;;;;;;;;2073335;28;20895;-60
2021/01/16 02:50:52;;;;;;;10.63;7.83;;;;;;;;;;2080697;28;20452;-60
2021/01/16 02:51:55;;;;;;;9.83;8.73;;;;;;;;;;2085964;28;20429;-59
2021/01/16 02:52:56;;;;;;;9.97;8.80;;;;;;;;;;2081512;28;20418;-59
2021/01/16 02:53:57;;;;;;;11.00;8.97;;;;;;;;;;2081464;28;20428;-61
2021/01/16 02:54:58;;;;;;;11.30;8.30;;;;;;;;;;2081727;28;20405;-62
2021/01/16 02:56:07;;;;;;;12.00;8.47;;;;;;;;;;2072743;28;20957;-58
2021/01/16 02:57:11;;;;;;;9.43;8.20;;;;;;;;;;2073523;28;20169;-58
2021/01/16 02:58:11;;;;;;;10.47;8.67;;;;;;;;;;2088548;28;20408;-61
2021/01/16 02:59:12;;;;;;;8.80;8.00;;;;;;;;;;2078597;28;20953;-60
2021/01/16 03:00:13;;;;;;;9.93;8.77;;;;;;;;;;2081071;28;20172;-61
2021/01/16 03:01:13;;;;;;;9.30;7.90;;;;;;;;;;2074948;28;20185;-59
2021/01/16 03:02:15;;;;;;;11.37;8.33;;;;;;;;;;2081751;28;20412;-60
2021/01/16 03:03:15;;;;;;;9.90;8.57;;;;;;;;;;2082808;28;20180;-60
2021/01/16 03:04:16;;;;;;;11.43;8.20;;;;;;;;;;2083286;28;20208;-59
2021/01/16 03:05:20;;;;;;;12.17;8.43;;;;;;;;;;2074119;28;20689;-61
2021/01/16 03:06:20;;;;;;;11.67;8.63;;;;;;;;;;2081451;28;20179;-60
2021/01/16 03:07:20;;;;;;;11.00;8.47;;;;;;;;;;2082723;28;20504;-61
2021/01/16 03:08:21;;;;;;;9.93;8.90;;;;;;;;;;2079916;28;20196;-60
2021/01/16 03:09:22;;;;;;;10.63;8.87;;;;;;;;;;2084382;28;20180;-62
2021/01/16 03:10:23;;;;;;;10.43;8.53;;;;;;;;;;2068417;28;20248;-62
2021/01/16 03:11:24;;;;;;;12.43;8.83;;;;;;;;;;2073072;28;20493;-61
2021/01/16 03:12:24;;;;;;;12.10;9.43;;;;;;;;;;2074146;28;20239;-58
2021/01/16 03:13:25;;;;;;;11.40;9.23;;;;;;;;;;2080309;28;20196;-59
2021/01/16 03:14:27;;;;;;;13.40;9.63;;;;;;;;;;2089668;28;20206;-58
2021/01/16 03:15:28;;;;;;;11.77;8.90;;;;;;;;;;2089397;28;20463;-60
2021/01/16 03:16:33;;;;;;;9.67;8.07;;;;;;;;;;2081708;28;20425;-60
2021/01/16 03:17:43;;;;;;;14.07;8.70;;;;;;;;;;2073548;28;20426;-62
2021/01/16 03:18:45;;;;;;;11.53;9.03;;;;;;;;;;2075786;28;20199;-62
2021/01/16 03:19:46;;;;;;;11.17;9.27;;;;;;;;;;2085335;28;20432;-62
2021/01/16 03:20:46;;;;;;;11.40;8.93;;;;;;;;;;2091122;28;20799;-61
2021/01/16 03:21:47;;;;;;;13.50;9.47;;;;;;;;;;2090269;28;20422;-59
2021/01/16 03:22:49;;;;;;;11.00;9.67;;;;;;;;;;2090088;28;20176;-57
2021/01/16 03:23:50;;;;;;;11.73;8.93;;;;;;;;;;2089300;28;20175;-58
2021/01/16 03:24:53;;;;;;;10.97;9.00;;;;;;;;;;2080482;28;20442;-57
2021/01/16 03:25:54;;;;;;;12.57;9.67;;;;;;;;;;2081577;28;20180;-60
2021/01/16 03:26:54;;;;;;;9.90;8.87;;;;;;;;;;2084360;28;20417;-57
2021/01/16 03:27:55;;;;;;;11.47;9.17;;;;;;;;;;2081329;28;20168;-57
2021/01/16 03:28:55;;;;;;;13.27;10.13;;;;;;;;;;2081277;28;20204;-59
2021/01/16 03:29:55;;;;;;;12.00;9.37;;;;;;;;;;2071974;28;20501;-59
2021/01/16 03:30:55;;;;;;;11.90;9.70;;;;;;;;;;2075586;28;20192;-58
2021/01/16 03:31:56;;;;;;;10.37;9.23;;;;;;;;;;2089455;28;20179;-58
2021/01/16 03:32:56;;;;;;;12.30;10.23;;;;;;;;;;2089934;28;20184;-61
2021/01/16 03:33:57;;;;;;;12.10;9.17;;;;;;;;;;2089480;28;20163;-57
2021/01/16 03:34:57;;;;;;;11.13;9.10;;;;;;;;;;2089644;28;20172;-57
2021/01/16 03:35:57;;;;;;;12.37;9.47;;;;;;;;;;2077918;28;20704;-58
2021/01/16 03:36:58;;;;;;;11.90;9.47;;;;;;;;;;2078259;28;20715;-59
2021/01/16 03:37:58;;;;;;;12.60;9.43;;;;;;;;;;2090023;28;20211;-57
2021/01/16 03:38:58;;;;;;;11.77;8.70;;;;;;;;;;2084235;28;20200;-58
2021/01/16 03:39:58;;;;;;;12.60;9.93;;;;;;;;;;2090031;28;20246;-58
2021/01/16 03:40:59;;;;;;;12.67;9.37;;;;;;;;;;2088769;28;20175;-58
2021/01/16 03:41:59;;;;;;;10.47;9.07;;;;;;;;;;2086850;28;20184;-58
2021/01/16 03:42:59;;;;;;;13.30;10.87;;;;;;;;;;2090786;28;20675;-57
2021/01/16 03:43:59;;;;;;;13.80;9.43;;;;;;;;;;2090860;28;20171;-62
2021/01/16 03:45:00;;;;;;;14.30;9.87;;;;;;;;;;2081418;28;20188;-59
2021/01/16 03:46:00;;;;;;;13.97;11.03;;;;;;;;;;2073199;28;20260;-62
2021/01/16 03:47:01;;;;;;;11.77;10.50;;;;;;;;;;2081583;28;20191;-61
2021/01/16 03:48:01;;;;;;;12.53;9.43;;;;;;;;;;2089938;28;20175;-61
2021/01/16 03:49:01;;;;;;;12.43;10.77;;;;;;;;;;2089816;28;20653;-60
2021/01/16 03:50:02;;;;;;;12.20;9.07;;;;;;;;;;2088547;28;20287;-60
2021/01/16 03:51:03;;;;;;;12.73;9.50;;;;;;;;;;2089032;28;20267;-59
2021/01/16 03:52:03;;;;;;;13.43;9.53;;;;;;;;;;2084499;28;20445;-60
2021/01/16 03:53:04;;;;;;;11.03;9.67;;;;;;;;;;2082510;28;20260;-55
2021/01/16 03:54:04;;;;;;;13.50;9.57;;;;;;;;;;2072465;28;20181;-57
2021/01/16 03:55:05;;;;;;;12.77;9.87;;;;;;;;;;2076070;28;20805;-57
2021/01/16 03:56:05;;;;;;;12.80;10.50;;;;;;;;;;2085239;28;20210;-58
2021/01/16 03:57:05;;;;;;;13.53;10.60;;;;;;;;;;2089608;28;20179;-59
2021/01/16 03:58:06;;;;;;;12.93;10.17;;;;;;;;;;2089364;28;20551;-59
2021/01/16 03:59:06;;;;;;;13.80;9.77;;;;;;;;;;2090003;28;20221;-58
2021/01/16 04:00:07;;;;;;;12.83;9.70;;;;;;;;;;2088942;28;20207;-61
2021/01/16 04:01:08;;;;;;;12.17;10.03;;;;;;;;;;2080453;28;20180;-59
2021/01/16 04:02:08;;;;;;;13.77;10.13;;;;;;;;;;2073327;28;20478;-57
2021/01/16 04:03:08;;;;;;;15.43;10.20;;;;;;;;;;2080348;28;20197;-59
2021/01/16 04:04:08;;;;;;;13.23;11.27;;;;;;;;;;2082680;28;20206;-58
2021/01/16 04:05:09;;;;;;;14.13;10.47;;;;;;;;;;2082045;28;20183;-58
2021/01/16 04:06:16;;;;;;;12.57;10.17;;;;;;;;;;2090509;28;20171;-59
2021/01/16 04:07:16;;;;;;;13.83;9.97;;;;;;;;;;2086846;28;20359;-58
2021/01/16 04:08:16;;;;;;;13.87;10.10;;;;;;;;;;2091683;28;20392;-57
2021/01/16 04:09:17;;;;;;;15.43;11.63;;;;;;;;;;2088481;28;20657;-58
2021/01/16 04:10:17;;;;;;;13.50;9.97;;;;;;;;;;2088387;28;20248;-58
2021/01/16 04:11:17;;;;;;;13.77;10.93;;;;;;;;;;2079865;28;20176;-59
2021/01/16 04:12:17;;;;;;;14.90;11.30;;;;;;;;;;2070966;28;20275;-61
2021/01/16 04:13:18;;;;;;;14.07;10.70;;;;;;;;;;2082527;28;20231;-58
2021/01/16 04:14:18;;;;;;;17.80;12.00;;;;;;;;;;2082525;28;20186;-58
2021/01/16 04:15:18;;;;;;;15.53;11.30;;;;;;;;;;2082572;28;20194;-61
2021/01/16 04:16:19;;;;;;;15.60;12.43;;;;;;;;;;2090035;28;20170;-61
2021/01/16 04:17:19;;;;;;;15.90;11.80;;;;;;;;;;2086516;28;20261;-62
2021/01/16 04:18:19;;;;;;;15.03;11.97;;;;;;;;;;2079448;28;20192;-59
2021/01/16 04:19:19;;;;;;;13.83;10.63;;;;;;;;;;2077555;28;20180;-59
2021/01/16 04:20:20;;;;;;;16.37;11.57;;;;;;;;;;2086045;28;20186;-58
2021/01/16 04:21:21;;;;;;;14.47;11.40;;;;;;;;;;2087827;28;20636;-58
2021/01/16 04:22:21;;;;;;;16.37;12.07;;;;;;;;;;2091229;28;20525;-58
2021/01/16 04:23:22;;;;;;;14.10;10.57;;;;;;;;;;2089923;28;20263;-58
2021/01/16 04:24:22;;;;;;;16.80;11.70;;;;;;;;;;2091293;28;20178;-59
2021/01/16 04:25:22;;;;;;;16.07;12.30;;;;;;;;;;2090347;28;20179;-59
2021/01/16 04:26:22;;;;;;;17.77;12.47;;;;;;;;;;2090903;28;20682;-58
2021/01/16 04:27:23;;;;;;;16.10;12.13;;;;;;;;;;2089810;28;20171;-60
2021/01/16 04:28:23;;;;;;;15.33;11.80;;;;;;;;;;2087827;28;20208;-58
2021/01/16 04:29:23;;;;;;;14.87;11.60;;;;;;;;;;2080552;28;20181;-58
2021/01/16 04:30:24;;;;;;;16.87;12.03;;;;;;;;;;2082259;28;20350;-60
2021/01/16 04:31:24;;;;;;;18.83;12.20;;;;;;;;;;2088872;28;20632;-60
2021/01/16 04:32:24;;;;;;;15.33;12.60;;;;;;;;;;2091119;28;20164;-58
2021/01/16 04:33:24;;;;;;;17.27;12.63;;;;;;;;;;2090565;28;20164;-58
2021/01/16 04:34:25;;;;;;;18.23;13.13;;;;;;;;;;2080743;28;20179;-59
2021/01/16 04:35:25;;;;;;;21.10;12.80;;;;;;;;;;2063302;28;20268;-59
2021/01/16 04:36:25;;;;;;;17.50;12.27;;;;;;;;;;2074848;28;20197;-63
2021/01/16 04:37:26;;;;;;;16.00;11.83;;;;;;;;;;2094801;28;20172;-59
2021/01/16 04:38:26;;;;;;;16.13;11.63;;;;;;;;;;2088974;28;20210;-58
2021/01/16 04:39:26;;;;;;;18.47;13.27;;;;;;;;;;2082088;28;20184;-61
2021/01/16 04:40:27;;;;;;;16.60;12.40;;;;;;;;;;2081997;28;20200;-60
2021/01/16 04:41:29;;;;;;;15.87;11.97;;;;;;;;;;2089426;28;20655;-58
2021/01/16 04:42:29;;;;;;;16.13;12.77;;;;;;;;;;2090216;28;20432;-60
2021/01/16 04:43:30;;;;;;;16.13;12.20;;;;;;;;;;2091173;28;20499;-57
2021/01/16 04:44:33;;;;;;;15.87;12.17;;;;;;;;;;2084472;28;20521;-58
2021/01/16 04:45:33;;;;;;;14.10;11.13;;;;;;;;;;2089831;28;20184;-58
2021/01/16 04:46:34;;;;;;;20.17;12.93;;;;;;;;;;2088655;28;20424;-57
2021/01/16 04:47:34;;;;;;;15.27;12.87;;;;;;;;;;2080866;28;20701;-61
2021/01/16 04:48:35;;;;;;;16.73;12.37;;;;;;;;;;2081848;28;20231;-61
2021/01/16 04:49:36;;;;;;;19.73;12.77;;;;;;;;;;2088212;28;20235;-58
2021/01/16 04:50:38;;;;;;;20.23;13.90;;;;;;;;;;2089824;28;20432;-58
2021/01/16 04:51:44;;;;;;;20.07;12.73;;;;;;;;;;2088234;28;20195;-60
2021/01/16 04:52:45;;;;;;;16.77;12.40;;;;;;;;;;2082217;28;20401;-57
2021/01/16 04:53:46;;;;;;;17.13;13.00;;;;;;;;;;2082124;28;20398;-59
2021/01/16 04:54:47;;;;;;;20.03;13.23;;;;;;;;;;2091164;28;20564;-59
2021/01/16 04:55:49;;;;;;;20.27;13.50;;;;;;;;;;2090251;28;20466;-57
2021/01/16 04:56:49;;;;;;;19.83;12.93;;;;;;;;;;2089136;28;20179;-60
2021/01/16 04:57:50;;;;;;;20.93;14.10;;;;;;;;;;2093270;28;20535;-60
2021/01/16 04:58:50;;;;;;;18.27;12.53;;;;;;;;;;2090542;28;20814;-57
2021/01/16 04:59:52;;;;;;;21.10;13.90;;;;;;;;;;2093432;28;20163;-60
2021/01/16 05:00:53;;;;;;;20.93;15.57;;;;;;;;;;2084426;28;20176;-60
2021/01/16 05:01:56;;;;;;;18.57;13.23;;;;;;;;;;2084694;28;20855;-60
2021/01/16 05:03:02;;;;;;;18.43;14.00;;;;;;;;;;2080943;28;20441;-61
2021/01/16 05:04:02;;;;;;;16.60;13.60;;;;;;;;;;2085672;28;20432;-60
2021/01/16 05:05:03;;;;;;;19.47;13.80;;;;;;;;;;2093532;28;20507;-60
2021/01/16 05:06:07;;;;;;;18.57;12.80;;;;;;;;;;2093248;28;20175;-60
2021/01/16 05:07:09;;;;;;;17.50;12.80;;;;;;;;;;2086666;28;20660;-61
2021/01/16 05:08:10;;;;;;;15.53;12.73;;;;;;;;;;2096294;28;20400;-61
2021/01/16 05:09:10;;;;;;;18.27;14.07;;;;;;;;;;2088321;28;20847;-58
2021/01/16 05:10:11;;;;;;;18.03;12.87;;;;;;;;;;2085430;28;20452;-61
2021/01/16 05:11:32;;;;;;;17.20;13.17;;;;;;;;;;2092377;28;20173;-59
2021/01/16 05:12:51;;;;;;;18.33;13.47;;;;;;;;;;2090305;28;20603;-59
2021/01/16 05:14:03;;;;;;;20.47;13.60;;;;;;;;;;2074591;28;20903;-57
2021/01/16 05:15:15;;;;;;;19.03;12.03;;;;;;;;;;2070298;28;20441;-60
2021/01/16 05:16:19;;;;;;;20.77;13.47;;;;;;;;;;2075192;28;20433;-55
2021/01/16 05:17:20;;;;;;;18.87;12.87;;;;;;;;;;2079305;28;20999;-58
2021/01/16 05:18:21;;;;;;;18.83;14.17;;;;;;;;;;2081786;28;20453;-58
2021/01/16 05:19:25;;;;;;;19.80;13.80;;;;;;;;;;2090545;28;20410;-58
2021/01/16 05:20:26;;;;;;;19.57;13.83;;;;;;;;;;2081851;28;20176;-59
2021/01/16 05:21:26;;;;;;;17.40;12.73;;;;;;;;;;2079963;28;20445;-59
2021/01/16 05:22:27;;;;;;;15.43;12.00;;;;;;;;;;2085161;28;20196;-58
2021/01/16 05:23:27;;;;;;;17.83;12.13;;;;;;;;;;2089333;28;20241;-61
2021/01/16 05:24:27;;;;;;;17.63;13.10;;;;;;;;;;2088420;28;20188;-58
2021/01/16 05:25:29;;;;;;;18.73;14.73;;;;;;;;;;2089670;28;20183;-56
2021/01/16 05:26:33;;;;;;;19.27;14.07;;;;;;;;;;2089179;28;20179;-60
2021/01/16 05:27:34;;;;;;;19.70;14.23;;;;;;;;;;2096630;28;20422;-60
2021/01/16 05:28:35;;;;;;;20.30;14.27;;;;;;;;;;2111867;22;21004;-55
2021/01/16 05:29:35;;;;;;;18.87;13.77;;;;;;;;;;2099094;28;20478;-59
2021/01/16 05:30:49;;;;;;;18.83;14.33;;;;;;;;;;2096438;28;20179;-60
2021/01/16 05:31:53;;;;;;;20.23;12.80;;;;;;;;;;2096518;28;20186;-62
2021/01/16 05:32:54;;;;;;;18.53;13.83;;;;;;;;;;2106507;28;20399;-55
2021/01/16 05:33:54;;;;;;;20.23;13.93;;;;;;;;;;2097045;28;20459;-60
2021/01/16 05:34:54;;;;;;;17.70;13.90;;;;;;;;;;2097453;28;20205;-61
2021/01/16 05:35:56;;;;;;;21.03;14.30;;;;;;;;;;2106189;28;20179;-59
2021/01/16 05:36:57;;;;;;;17.47;13.57;;;;;;;;;;2104013;28;20178;-61
2021/01/16 05:37:57;;;;;;;19.93;14.20;;;;;;;;;;2102182;28;20500;-59
2021/01/16 05:39:00;;;;;;;21.20;14.53;;;;;;;;;;2101433;28;20191;-59
2021/01/16 05:40:00;;;;;;;21.47;13.13;;;;;;;;;;2106668;28;20185;-58
2021/01/16 05:41:05;;;;;;;20.00;13.80;;;;;;;;;;2092796;28;20447;-57
2021/01/16 05:42:06;;;;;;;16.87;13.17;;;;;;;;;;2096105;28;20179;-60
2021/01/16 05:43:06;;;;;;;16.93;12.77;;;;;;;;;;2102622;28;20906;-58
2021/01/16 05:44:07;;;;;;;17.40;13.10;;;;;;;;;;2087272;28;20187;-59
2021/01/16 05:45:09;;;;;;;19.90;13.17;;;;;;;;;;2085537;28;20206;-59
2021/01/16 05:46:13;;;;;;;21.30;14.23;;;;;;;;;;2102031;28;20901;-60
2021/01/16 05:47:14;;;;;;;18.47;13.43;;;;;;;;;;2104011;28;20521;-57
2021/01/16 05:48:15;;;;;;;18.83;13.70;;;;;;;;;;2097395;28;20464;-60
2021/01/16 05:49:15;;;;;;;18.53;13.90;;;;;;;;;;2089225;28;20463;-56
2021/01/16 05:50:16;;;;;;;18.10;13.23;;;;;;;;;;2097436;28;20547;-60
2021/01/16 05:51:16;;;;;;;20.80;13.67;;;;;;;;;;2106469;28;20188;-57
2021/01/16 05:52:17;;;;;;;21.30;14.57;;;;;;;;;;2101396;28;20197;-59
2021/01/16 05:53:17;;;;;;;19.77;14.50;;;;;;;;;;2096245;28;20183;-60
2021/01/16 05:54:18;;;;;;;22.20;14.63;;;;;;;;;;2097497;28;20171;-59
2021/01/16 05:55:18;;;;;;;18.03;13.83;;;;;;;;;;2101066;28;20655;-59
2021/01/16 05:56:20;;;;;;;22.03;15.13;;;;;;;;;;2098648;28;20171;-59
2021/01/16 05:57:21;;;;;;;21.47;13.90;;;;;;;;;;2103984;28;20170;-58
2021/01/16 05:58:23;;;;;;;20.43;14.07;;;;;;;;;;2104424;28;20407;-59
2021/01/16 05:59:25;;;;;;;19.40;13.87;;;;;;;;;;2106609;28;20431;-60
2021/01/16 06:00:26;;;;;;;20.73;13.57;;;;;;;;;;2105238;28;20423;-62
2021/01/16 06:01:26;;;;;;;19.20;14.07;;;;;;;;;;2098595;28;20858;-61
2021/01/16 06:02:30;;;;;;;20.63;14.83;;;;;;;;;;2092622;28;20350;-61
2021/01/16 06:03:31;;;;;;;20.87;14.30;;;;;;;;;;2106297;28;20185;-61
2021/01/16 06:04:33;;;;;;;18.03;13.57;;;;;;;;;;2107070;28;20490;-61
2021/01/16 06:05:34;;;;;;;20.17;13.60;;;;;;;;;;2107312;28;20425;-60